createdAt,value
2023-03-05T00:00:46.815Z,9.09
2023-03-05T00:02:49.271Z,9.09
2023-03-05T00:04:51.788Z,9.08
2023-03-05T00:06:55.886Z,9.03
2023-03-05T00:08:58.748Z,9.04
2023-03-05T00:11:04.301Z,9.03
2023-03-05T00:13:06.642Z,9.04
2023-03-05T00:15:09.916Z,8.96
2023-03-05T00:17:12.164Z,8.93
2023-03-05T00:19:14.600Z,8.98
2023-03-05T00:21:22.392Z,8.94
2023-03-05T00:23:24.639Z,8.92
2023-03-05T00:25:27.193Z,8.94
2023-03-05T00:27:29.468Z,8.92
2023-03-05T00:29:31.905Z,8.86
2023-03-05T00:31:35.949Z,8.91
2023-03-05T00:33:38.263Z,8.90
2023-03-05T00:35:42.437Z,8.89
2023-03-05T00:37:44.799Z,8.85
2023-03-05T00:39:47.198Z,8.86
2023-03-05T00:41:50.087Z,8.92
2023-03-05T00:43:52.491Z,8.89
2023-03-05T00:45:54.931Z,8.88
2023-03-05T00:47:57.279Z,8.90
2023-03-05T00:50:00.233Z,8.89
2023-03-05T00:52:02.427Z,8.84
2023-03-05T00:54:06.093Z,8.92
2023-03-05T00:56:08.476Z,8.88
2023-03-05T00:58:12.192Z,8.89
2023-03-05T01:00:17.299Z,8.88
2023-03-05T01:02:19.722Z,8.88
2023-03-05T01:04:22.085Z,8.86
2023-03-05T01:06:24.432Z,8.82
2023-03-05T01:08:27.211Z,8.86
2023-03-05T01:10:30.578Z,8.81
2023-03-05T01:12:32.868Z,8.82
2023-03-05T01:14:36.157Z,8.75
2023-03-05T01:16:38.469Z,8.69
2023-03-05T01:18:41.427Z,8.73
2023-03-05T01:20:43.836Z,8.71
2023-03-05T01:22:46.107Z,8.65
2023-03-05T01:24:48.384Z,8.74
2023-03-05T01:26:51.109Z,8.66
2023-03-05T01:28:53.461Z,8.68
2023-03-05T01:30:55.859Z,8.71
2023-03-05T01:32:58.148Z,8.69
2023-03-05T01:35:02.453Z,8.73
2023-03-05T01:37:05.001Z,8.73
2023-03-05T01:39:07.244Z,8.72
2023-03-05T01:41:10.549Z,8.72
2023-03-05T01:43:13.742Z,8.65
2023-03-05T01:45:18.748Z,8.69
2023-03-05T01:47:21.092Z,8.67
2023-03-05T01:49:29.750Z,8.62
2023-03-05T01:51:37.091Z,8.70
2023-03-05T01:53:40.363Z,8.73
2023-03-05T01:55:42.624Z,8.72
2023-03-05T01:57:49.934Z,8.71
2023-03-05T01:59:58.437Z,8.69
2023-03-05T02:02:01.189Z,8.69
2023-03-05T02:04:04.041Z,8.68
2023-03-05T02:06:06.535Z,8.68
2023-03-05T02:08:11.708Z,8.65
2023-03-05T02:10:20.835Z,8.65
2023-03-05T02:12:23.608Z,8.62
2023-03-05T02:14:27.393Z,8.65
2023-03-05T02:16:37.237Z,8.58
2023-03-05T02:18:39.532Z,8.57
2023-03-05T02:20:45.249Z,8.57
2023-03-05T02:22:47.794Z,8.56
2023-03-05T02:24:50.638Z,8.51
2023-03-05T02:26:52.997Z,8.49
2023-03-05T02:29:01.481Z,8.55
2023-03-05T02:31:10.289Z,8.45
2023-03-05T02:33:15.407Z,8.50
2023-03-05T02:35:17.915Z,8.45
2023-03-05T02:37:20.348Z,8.50
2023-03-05T02:39:22.595Z,8.52
2023-03-05T02:41:25.341Z,8.53
2023-03-05T02:43:27.849Z,8.54
2023-03-05T02:45:30.424Z,8.56
2023-03-05T02:47:33.418Z,8.54
2023-03-05T02:49:35.865Z,8.49
2023-03-05T02:51:38.131Z,8.48
2023-03-05T02:53:40.456Z,8.47
2023-03-05T02:55:42.874Z,8.51
2023-03-05T02:57:45.432Z,8.47
2023-03-05T02:59:47.850Z,8.42
2023-03-05T03:01:50.152Z,8.47
2023-03-05T03:03:52.311Z,8.37
2023-03-05T03:05:54.644Z,8.36
2023-03-05T03:07:56.864Z,8.41
2023-03-05T03:09:59.094Z,8.32
2023-03-05T03:12:01.374Z,8.27
2023-03-05T03:14:03.833Z,8.32
2023-03-05T03:16:09.917Z,8.25
2023-03-05T03:18:12.190Z,8.27
2023-03-05T03:20:16.918Z,8.23
2023-03-05T03:22:19.071Z,8.34
2023-03-05T03:24:22.115Z,8.31
2023-03-05T03:26:25.077Z,8.29
2023-03-05T03:28:27.409Z,8.23
2023-03-05T03:30:29.906Z,8.27
2023-03-05T03:32:33.301Z,8.28
2023-03-05T03:34:35.625Z,8.28
2023-03-05T03:36:38.086Z,8.28
2023-03-05T03:38:40.496Z,8.37
2023-03-05T03:40:42.860Z,8.34
2023-03-05T03:42:45.297Z,8.35
2023-03-05T03:44:48.703Z,8.37
2023-03-05T03:46:51.887Z,8.42
2023-03-05T03:48:54.387Z,8.36
2023-03-05T03:50:56.594Z,8.25
2023-03-05T03:52:59.188Z,8.31
2023-03-05T03:55:02.404Z,8.38
2023-03-05T03:57:04.944Z,8.42
2023-03-05T03:59:07.656Z,8.36
2023-03-05T04:01:10.219Z,8.42
2023-03-05T04:03:12.632Z,8.38
2023-03-05T04:05:15.053Z,8.38
2023-03-05T04:07:17.591Z,8.41
2023-03-05T04:09:19.832Z,8.27
2023-03-05T04:11:22.707Z,8.30
2023-03-05T04:13:24.820Z,8.28
2023-03-05T04:15:27.105Z,8.22
2023-03-05T04:17:29.218Z,8.20
2023-03-05T04:19:31.381Z,8.17
2023-03-05T04:21:33.460Z,8.17
2023-03-05T04:23:35.792Z,8.18
2023-03-05T04:25:37.967Z,8.14
2023-03-05T04:27:41.411Z,8.13
2023-03-05T04:29:43.457Z,8.17
2023-03-05T04:31:45.505Z,8.15
2023-03-05T04:33:47.593Z,8.15
2023-03-05T04:35:51.200Z,8.14
2023-03-05T04:37:53.460Z,8.21
2023-03-05T04:39:55.760Z,8.22
2023-03-05T04:41:57.770Z,8.23
2023-03-05T04:43:59.804Z,8.18
2023-03-05T04:46:02.009Z,8.20
2023-03-05T04:48:04.541Z,8.20
2023-03-05T04:50:07.622Z,8.20
2023-03-05T04:52:12.436Z,8.17
2023-03-05T04:54:14.485Z,8.22
2023-03-05T04:56:16.855Z,8.26
2023-03-05T04:58:20.833Z,8.24
2023-03-05T05:00:23.282Z,8.28
2023-03-05T05:02:25.642Z,8.25
2023-03-05T05:04:27.821Z,8.22
2023-03-05T05:06:29.913Z,8.18
2023-03-05T05:08:32.136Z,8.18
2023-03-05T05:10:34.449Z,8.20
2023-03-05T05:12:36.986Z,8.26
2023-03-05T05:14:39.225Z,8.25
2023-03-05T05:16:41.405Z,8.26
2023-03-05T05:18:43.668Z,8.25
2023-03-05T05:20:45.698Z,8.27
2023-03-05T05:22:47.742Z,8.28
2023-03-05T05:24:49.905Z,8.26
2023-03-05T05:26:54.416Z,8.23
2023-03-05T05:28:56.455Z,8.17
2023-03-05T05:30:58.735Z,8.08
2023-03-05T05:33:00.907Z,8.08
2023-03-05T05:35:04.064Z,8.15
2023-03-05T05:37:06.072Z,8.19
2023-03-05T05:39:08.265Z,8.17
2023-03-05T05:41:13.855Z,8.21
2023-03-05T05:43:15.927Z,8.20
2023-03-05T05:45:18.173Z,8.22
2023-03-05T05:47:20.394Z,8.17
2023-03-05T05:49:22.476Z,8.15
2023-03-05T05:51:25.037Z,8.14
2023-03-05T05:53:27.205Z,8.05
2023-03-05T05:55:29.235Z,8.07
2023-03-05T05:57:31.802Z,8.07
2023-03-05T05:59:34.052Z,8.09
2023-03-05T06:01:36.153Z,8.04
2023-03-05T06:03:38.232Z,8.05
2023-03-05T06:05:43.348Z,8.05
2023-03-05T06:07:45.545Z,8.06
2023-03-05T06:09:47.628Z,8.05
2023-03-05T06:11:50.603Z,8.09
2023-03-05T06:13:52.857Z,8.05
2023-03-05T06:15:58.839Z,8.12
2023-03-05T06:18:01.319Z,8.15
2023-03-05T06:20:04.587Z,8.07
2023-03-05T06:22:06.616Z,8.06
2023-03-05T06:24:08.821Z,8.05
2023-03-05T06:26:14.070Z,8.11
2023-03-05T06:28:18.434Z,8.14
2023-03-05T06:30:20.612Z,8.14
2023-03-05T06:32:23.447Z,7.99
2023-03-05T06:34:25.618Z,8.08
2023-03-05T06:36:28.630Z,8.00
2023-03-05T06:38:30.939Z,8.04
2023-03-05T06:40:33.074Z,8.03
2023-03-05T06:42:35.490Z,8.04
2023-03-05T06:44:40.585Z,8.04
2023-03-05T06:46:42.701Z,8.06
2023-03-05T06:48:45.366Z,8.02
2023-03-05T06:50:47.523Z,7.99
2023-03-05T06:52:50.822Z,8.02
2023-03-05T06:54:55.905Z,7.98
2023-03-05T06:56:58.304Z,8.02
2023-03-05T06:59:00.375Z,7.98
2023-03-05T07:01:05.573Z,7.96
2023-03-05T07:03:07.874Z,7.92
2023-03-05T07:05:10.470Z,7.94
2023-03-05T07:07:12.689Z,8.01
2023-03-05T07:09:16.002Z,7.90
2023-03-05T07:11:20.158Z,7.95
2023-03-05T07:13:22.281Z,7.99
2023-03-05T07:15:24.531Z,7.88
2023-03-05T07:17:26.627Z,7.86
2023-03-05T07:19:28.599Z,7.95
2023-03-05T07:21:33.558Z,7.97
2023-03-05T07:23:36.814Z,7.94
2023-03-05T07:25:39.902Z,7.92
2023-03-05T07:27:41.970Z,7.86
2023-03-05T07:29:44.006Z,7.94
2023-03-05T07:31:46.265Z,7.94
2023-03-05T07:33:51.283Z,7.93
2023-03-05T07:35:53.550Z,7.84
2023-03-05T07:37:56.066Z,7.87
2023-03-05T07:39:58.549Z,7.88
2023-03-05T07:42:00.662Z,7.89
2023-03-05T07:44:03.433Z,7.90
2023-03-05T07:46:07.889Z,7.91
2023-03-05T07:48:16.612Z,7.97
2023-03-05T07:50:18.891Z,7.92
2023-03-05T07:52:20.976Z,8.02
2023-03-05T07:54:23.098Z,8.00
2023-03-05T07:56:32.116Z,7.95
2023-03-05T07:58:34.259Z,7.93
2023-03-05T08:00:36.478Z,7.90
2023-03-05T08:02:38.542Z,7.91
2023-03-05T08:04:42.339Z,7.97
2023-03-05T08:06:44.295Z,8.01
2023-03-05T08:08:46.409Z,8.09
2023-03-05T08:10:48.338Z,8.09
2023-03-05T08:12:50.328Z,7.99
2023-03-05T08:14:52.322Z,8.04
2023-03-05T08:16:54.250Z,8.02
2023-03-05T08:18:57.589Z,7.98
2023-03-05T08:20:59.760Z,7.81
2023-03-05T08:23:03.409Z,7.92
2023-03-05T08:25:07.197Z,7.96
2023-03-05T08:27:09.837Z,7.98
2023-03-05T08:29:11.873Z,7.97
2023-03-05T08:31:16.239Z,7.97
2023-03-05T08:33:18.380Z,7.97
2023-03-05T08:35:21.002Z,8.00
2023-03-05T08:37:22.857Z,8.01
2023-03-05T08:39:24.847Z,7.94
2023-03-05T08:41:26.732Z,8.06
2023-03-05T08:43:28.713Z,8.01
2023-03-05T08:45:30.597Z,8.06
2023-03-05T08:47:32.436Z,8.07
2023-03-05T08:49:34.353Z,8.06
2023-03-05T08:51:36.566Z,8.00
2023-03-05T08:53:39.310Z,8.08
2023-03-05T08:55:43.828Z,8.08
2023-03-05T08:57:45.992Z,8.11
2023-03-05T08:59:50.325Z,8.09
2023-03-05T09:01:52.293Z,8.13
2023-03-05T09:03:54.722Z,8.17
2023-03-05T09:06:01.110Z,8.11
2023-03-05T09:08:04.971Z,8.13
2023-03-05T09:10:10.094Z,8.15
2023-03-05T09:12:13.468Z,8.22
2023-03-05T09:14:15.355Z,8.25
2023-03-05T09:16:18.764Z,8.23
2023-03-05T09:18:22.839Z,8.25
2023-03-05T09:20:24.749Z,8.29
2023-03-05T09:22:26.698Z,8.28
2023-03-05T09:24:28.624Z,8.28
2023-03-05T09:26:31.767Z,8.34
2023-03-05T09:28:33.611Z,8.25
2023-03-05T09:30:36.084Z,8.30
2023-03-05T09:32:38.026Z,8.36
2023-03-05T09:34:39.908Z,8.35
2023-03-05T09:36:41.732Z,8.38
2023-03-05T09:38:43.557Z,8.44
2023-03-05T09:40:48.861Z,8.48
2023-03-05T09:42:51.466Z,8.49
2023-03-05T09:44:56.948Z,8.50
2023-03-05T09:47:05.255Z,8.33
2023-03-05T09:49:11.577Z,8.38
2023-03-05T09:51:21.108Z,8.48
2023-03-05T09:53:34.013Z,8.49
2023-03-05T09:55:41.100Z,8.47
2023-03-05T09:57:48.792Z,8.47
2023-03-05T09:59:58.131Z,8.41
2023-03-05T10:02:05.468Z,8.32
2023-03-05T10:04:12.751Z,8.21
2023-03-05T10:06:20.868Z,8.26
2023-03-05T10:08:31.426Z,8.31
2023-03-05T10:10:40.822Z,8.22
2023-03-05T10:12:46.103Z,8.24
2023-03-05T10:14:49.270Z,8.29
2023-03-05T10:16:54.706Z,8.32
2023-03-05T10:19:00.988Z,8.26
2023-03-05T10:21:06.358Z,8.35
2023-03-05T10:23:09.336Z,8.35
2023-03-05T10:25:15.828Z,8.38
2023-03-05T10:27:27.274Z,8.37
2023-03-05T10:29:33.593Z,8.38
2023-03-05T10:31:38.967Z,8.37
2023-03-05T10:33:45.538Z,8.43
2023-03-05T10:35:50.945Z,8.25
2023-03-05T10:37:59.054Z,8.37
2023-03-05T10:40:12.135Z,8.45
2023-03-05T10:42:17.714Z,8.45
2023-03-05T10:44:29.591Z,8.49
2023-03-05T10:46:35.512Z,8.53
2023-03-05T10:48:43.462Z,8.52
2023-03-05T10:50:50.144Z,8.55
2023-03-05T10:53:06.653Z,8.49
2023-03-05T10:55:13.909Z,8.51
2023-03-05T10:57:21.305Z,8.45
2023-03-05T10:59:23.211Z,8.37
2023-03-05T11:01:28.476Z,8.13
2023-03-05T11:03:36.713Z,8.27
2023-03-05T11:05:39.319Z,8.27
2023-03-05T11:07:41.331Z,8.14
2023-03-05T11:09:53.269Z,8.17
2023-03-05T11:12:01.314Z,8.14
2023-03-05T11:14:04.836Z,8.08
2023-03-05T11:16:15.999Z,8.09
2023-03-05T11:18:24.372Z,8.15
2023-03-05T11:20:28.084Z,8.07
2023-03-05T11:22:37.844Z,8.07
2023-03-05T11:24:41.464Z,8.09
2023-03-05T11:26:48.678Z,8.00
2023-03-05T11:28:54.022Z,8.06
2023-03-05T11:31:00.509Z,8.14
2023-03-05T11:33:10.285Z,8.07
2023-03-05T11:35:31.574Z,8.16
2023-03-05T11:37:33.555Z,8.11
2023-03-05T11:39:38.463Z,8.20
2023-03-05T11:41:47.068Z,8.19
2023-03-05T11:43:51.144Z,8.16
2023-03-05T11:46:01.701Z,8.02
2023-03-05T11:48:13.913Z,7.88
2023-03-05T11:50:21.226Z,7.79
2023-03-05T11:52:31.119Z,7.76
2023-03-05T11:54:42.908Z,7.79
2023-03-05T11:56:47.471Z,7.86
2023-03-05T11:58:53.354Z,7.76
2023-03-05T12:00:57.987Z,7.72
2023-03-05T12:03:04.532Z,7.76
2023-03-05T12:05:07.995Z,7.72
2023-03-05T12:07:14.219Z,7.55
2023-03-05T12:09:22.445Z,7.63
2023-03-05T12:11:30.665Z,7.45
2023-03-05T12:13:43.045Z,7.64
2023-03-05T12:15:56.589Z,7.47
2023-03-05T12:18:08.673Z,7.57
2023-03-05T12:20:21.131Z,7.55
2023-03-05T12:22:26.123Z,7.63
2023-03-05T12:24:31.202Z,7.62
2023-03-05T12:26:39.489Z,7.66
2023-03-05T12:28:53.338Z,7.66
2023-03-05T12:31:01.411Z,7.62
2023-03-05T12:33:06.049Z,7.68
2023-03-05T12:35:14.216Z,7.65
2023-03-05T12:37:22.272Z,7.77
2023-03-05T12:39:42.582Z,7.65
2023-03-05T12:41:44.646Z,7.66
2023-03-05T12:43:46.598Z,7.64
2023-03-05T12:45:48.523Z,7.34
2023-03-05T12:47:56.717Z,7.29
2023-03-05T12:50:02.026Z,7.29
2023-03-05T12:52:05.567Z,7.50
2023-03-05T12:54:14.103Z,7.58
2023-03-05T12:56:20.834Z,7.58
2023-03-05T12:58:32.559Z,7.68
2023-03-05T13:00:43.338Z,7.53
2023-03-05T13:02:46.556Z,7.42
2023-03-05T13:04:53.652Z,7.48
2023-03-05T13:07:00.483Z,7.53
2023-03-05T13:09:07.563Z,7.61
2023-03-05T13:11:19.392Z,7.39
2023-03-05T13:13:22.419Z,7.60
2023-03-05T13:15:26.434Z,7.68
2023-03-05T13:17:31.874Z,7.71
2023-03-05T13:19:36.179Z,7.72
2023-03-05T13:21:38.529Z,7.80
2023-03-05T13:23:49.130Z,7.72
2023-03-05T13:25:57.338Z,7.71
2023-03-05T13:28:05.789Z,7.81
2023-03-05T13:30:22.326Z,7.81
2023-03-05T13:32:29.152Z,7.84
2023-03-05T13:34:46.557Z,7.82
2023-03-05T13:36:55.461Z,7.72
2023-03-05T13:38:57.835Z,7.76
2023-03-05T13:41:05.513Z,7.87
2023-03-05T13:43:12.538Z,7.55
2023-03-05T13:45:20.689Z,7.27
2023-03-05T13:47:25.290Z,7.20
2023-03-05T13:49:28.970Z,7.13
2023-03-05T13:51:42.640Z,7.29
2023-03-05T13:53:45.352Z,7.21
2023-03-05T13:55:53.835Z,7.20
2023-03-05T13:57:55.923Z,7.30
2023-03-05T13:59:58.072Z,7.30
2023-03-05T14:02:06.063Z,7.30
2023-03-05T14:04:20.744Z,7.49
2023-03-05T14:06:25.269Z,7.37
2023-03-05T14:08:30.349Z,7.45
2023-03-05T14:10:36.690Z,7.38
2023-03-05T14:12:42.785Z,7.43
2023-03-05T14:14:45.313Z,7.57
2023-03-05T14:16:47.490Z,7.63
2023-03-05T14:18:55.206Z,7.68
2023-03-05T14:21:02.277Z,7.71
2023-03-05T14:23:27.345Z,7.63
2023-03-05T14:25:36.601Z,7.76
2023-03-05T14:27:39.407Z,7.67
2023-03-05T14:29:45.943Z,7.57
2023-03-05T14:31:52.344Z,7.64
2023-03-05T14:33:59.613Z,7.38
2023-03-05T14:36:04.997Z,7.42
2023-03-05T14:38:09.034Z,7.53
2023-03-05T14:40:12.770Z,7.53
2023-03-05T14:42:28.123Z,7.58
2023-03-05T14:44:30.012Z,7.72
2023-03-05T14:46:32.215Z,7.71
2023-03-05T14:48:34.770Z,7.72
2023-03-05T14:50:44.891Z,7.83
2023-03-05T14:52:49.445Z,7.82
2023-03-05T14:54:53.762Z,7.89
2023-03-05T14:56:56.677Z,7.93
2023-03-05T14:58:59.299Z,7.92
2023-03-05T15:01:02.478Z,8.02
2023-03-05T15:03:07.035Z,8.06
2023-03-05T15:05:10.834Z,8.08
2023-03-05T15:07:19.220Z,8.14
2023-03-05T15:09:21.797Z,8.19
2023-03-05T15:11:24.316Z,8.22
2023-03-05T15:13:27.012Z,8.29
2023-03-05T15:15:29.589Z,8.29
2023-03-05T15:17:33.516Z,8.34
2023-03-05T15:19:35.493Z,8.33
2023-03-05T15:21:37.527Z,8.31
2023-03-05T15:23:41.627Z,8.34
2023-03-05T15:25:44.376Z,8.36
2023-03-05T15:27:50.957Z,8.36
2023-03-05T15:29:53.357Z,8.41
2023-03-05T15:31:55.541Z,8.43
2023-03-05T15:33:57.514Z,8.38
2023-03-05T15:36:00.160Z,8.47
2023-03-05T15:38:02.390Z,8.53
2023-03-05T15:40:05.168Z,8.57
2023-03-05T15:42:07.547Z,8.56
2023-03-05T15:44:09.632Z,8.55
2023-03-05T15:46:11.989Z,8.60
2023-03-05T15:48:14.350Z,8.55
2023-03-05T15:50:19.870Z,8.61
2023-03-05T15:52:22.091Z,8.62
2023-03-05T15:54:24.363Z,8.57
2023-03-05T15:56:26.467Z,8.65
2023-03-05T15:58:33.406Z,8.64
2023-03-05T16:00:38.272Z,8.61
2023-03-05T16:02:40.481Z,8.64
2023-03-05T16:04:43.510Z,8.63
2023-03-05T16:06:49.641Z,8.66
2023-03-05T16:08:55.346Z,8.68
2023-03-05T16:10:58.361Z,8.63
2023-03-05T16:13:07.069Z,8.61
2023-03-05T16:15:12.378Z,8.58
2023-03-05T16:17:16.251Z,8.56
2023-03-05T16:19:20.001Z,8.50
2023-03-05T16:21:22.399Z,8.57
2023-03-05T16:23:25.286Z,8.58
2023-03-05T16:25:27.448Z,8.62
2023-03-05T16:27:30.349Z,8.67
2023-03-05T16:29:35.624Z,8.69
2023-03-05T16:31:40.806Z,8.73
2023-03-05T16:33:42.954Z,8.74
2023-03-05T16:35:45.181Z,8.71
2023-03-05T16:37:47.771Z,8.63
2023-03-05T16:39:50.491Z,8.66
2023-03-05T16:41:55.434Z,8.67
2023-03-05T16:43:59.397Z,8.70
2023-03-05T16:46:01.688Z,8.74
2023-03-05T16:48:04.401Z,8.74
2023-03-05T16:50:09.126Z,8.76
2023-03-05T16:52:18.706Z,8.76
2023-03-05T16:54:22.469Z,8.75
2023-03-05T16:56:24.589Z,8.83
2023-03-05T16:58:32.249Z,8.80
2023-03-05T17:00:34.484Z,8.73
2023-03-05T17:02:36.813Z,8.72
2023-03-05T17:04:39.364Z,8.70
2023-03-05T17:06:42.000Z,8.67
2023-03-05T17:08:45.444Z,8.70
2023-03-05T17:10:48.438Z,8.64
2023-03-05T17:12:52.964Z,8.66
2023-03-05T17:14:55.048Z,8.61
2023-03-05T17:16:57.988Z,8.63
2023-03-05T17:19:00.794Z,8.67
2023-03-05T17:21:07.791Z,8.68
2023-03-05T17:23:11.042Z,8.70
2023-03-05T17:25:14.330Z,8.73
2023-03-05T17:27:18.954Z,8.75
2023-03-05T17:29:22.840Z,8.73
2023-03-05T17:31:25.133Z,8.67
2023-03-05T17:33:29.291Z,8.64
2023-03-05T17:35:31.549Z,8.66
2023-03-05T17:37:34.316Z,8.68
2023-03-05T17:39:39.413Z,8.72
2023-03-05T17:41:41.544Z,8.78
2023-03-05T17:43:44.482Z,8.82
2023-03-05T17:45:47.866Z,8.80
2023-03-05T17:47:53.011Z,8.84
2023-03-05T17:49:55.005Z,8.78
2023-03-05T17:51:57.441Z,8.79
2023-03-05T17:53:59.480Z,8.85
2023-03-05T17:56:01.901Z,8.88
2023-03-05T17:58:04.290Z,8.89
2023-03-05T18:00:09.578Z,8.89
2023-03-05T18:02:15.487Z,8.92
2023-03-05T18:04:20.142Z,8.87
2023-03-05T18:06:22.778Z,8.87
2023-03-05T18:08:29.823Z,8.84
2023-03-05T18:10:33.722Z,8.88
2023-03-05T18:12:38.069Z,8.85
2023-03-05T18:14:42.232Z,8.86
2023-03-05T18:16:46.094Z,8.83
2023-03-05T18:18:49.032Z,8.75
2023-03-05T18:20:55.438Z,8.81
2023-03-05T18:23:00.168Z,8.83
2023-03-05T18:25:02.459Z,8.81
2023-03-05T18:27:04.857Z,8.74
2023-03-05T18:29:06.927Z,8.70
2023-03-05T18:31:08.936Z,8.74
2023-03-05T18:33:18.612Z,8.72
2023-03-05T18:35:20.557Z,8.75
2023-03-05T18:37:22.564Z,8.74
2023-03-05T18:39:24.715Z,8.69
2023-03-05T18:41:28.237Z,8.70
2023-03-05T18:43:31.304Z,8.77
2023-03-05T18:45:34.371Z,8.71
2023-03-05T18:47:39.099Z,8.70
2023-03-05T18:49:41.068Z,8.65
2023-03-05T18:51:43.563Z,8.61
2023-03-05T18:53:46.403Z,8.57
2023-03-05T18:55:50.971Z,8.65
2023-03-05T18:57:56.988Z,8.65
2023-03-05T18:59:59.195Z,8.67
2023-03-05T19:02:01.266Z,8.61
2023-03-05T19:04:06.444Z,8.63
2023-03-05T19:06:08.897Z,8.58
2023-03-05T19:08:11.084Z,8.61
2023-03-05T19:10:15.263Z,8.59
2023-03-05T19:12:17.388Z,8.60
2023-03-05T19:14:19.509Z,8.58
2023-03-05T19:16:24.421Z,8.63
2023-03-05T19:18:28.887Z,8.66
2023-03-05T19:20:30.838Z,8.57
2023-03-05T19:22:33.649Z,8.55
2023-03-05T19:24:38.018Z,8.56
2023-03-05T19:26:41.417Z,8.54
2023-03-05T19:28:43.471Z,8.56
2023-03-05T19:30:48.798Z,8.56
2023-03-05T19:32:51.365Z,8.53
2023-03-05T19:34:57.348Z,8.55
2023-03-05T19:36:59.491Z,8.54
2023-03-05T19:39:05.097Z,8.53
2023-03-05T19:41:09.675Z,8.52
2023-03-05T19:43:11.784Z,8.51
2023-03-05T19:45:14.193Z,8.55
2023-03-05T19:47:16.218Z,8.57
2023-03-05T19:49:19.014Z,8.59
2023-03-05T19:51:24.110Z,8.57
2023-03-05T19:53:26.357Z,8.61
2023-03-05T19:55:28.372Z,8.57
2023-03-05T19:57:33.373Z,8.60
2023-03-05T19:59:35.590Z,8.61
2023-03-05T20:01:38.011Z,8.67
2023-03-05T20:03:40.863Z,8.71
2023-03-05T20:05:43.947Z,8.71
2023-03-05T20:07:48.214Z,8.63
2023-03-05T20:09:52.133Z,8.59
2023-03-05T20:11:54.442Z,8.63
2023-03-05T20:13:57.537Z,8.66
2023-03-05T20:16:01.593Z,8.70
2023-03-05T20:18:05.939Z,8.67
2023-03-05T20:20:10.954Z,8.69
2023-03-05T20:22:14.095Z,8.58
2023-03-05T20:24:19.903Z,8.64
2023-03-05T20:26:26.606Z,8.65
2023-03-05T20:28:28.800Z,8.60
2023-03-05T20:30:31.089Z,8.47
2023-03-05T20:32:33.384Z,8.40
2023-03-05T20:34:35.455Z,8.42
2023-03-05T20:36:37.989Z,8.38
2023-03-05T20:38:40.276Z,8.49
2023-03-05T20:40:42.349Z,8.50
2023-03-05T20:42:46.591Z,8.51
2023-03-05T20:44:48.616Z,8.45
2023-03-05T20:47:02.695Z,8.50
2023-03-05T20:49:08.717Z,8.47
2023-03-05T20:51:13.306Z,8.53
2023-03-05T20:53:16.346Z,8.50
2023-03-05T20:55:18.453Z,8.50
2023-03-05T20:57:22.557Z,8.50
2023-03-05T20:59:24.907Z,8.36
2023-03-05T21:01:28.071Z,8.37
2023-03-05T21:03:32.844Z,8.44
2023-03-05T21:05:36.005Z,8.27
2023-03-05T21:07:38.005Z,8.33
2023-03-05T21:09:40.235Z,8.39
2023-03-05T21:11:42.136Z,8.42
2023-03-05T21:13:44.762Z,8.43
2023-03-05T21:15:46.961Z,8.41
2023-03-05T21:17:49.325Z,8.41
2023-03-05T21:19:51.282Z,8.35
2023-03-05T21:21:53.225Z,8.37
2023-03-05T21:23:55.597Z,8.43
2023-03-05T21:25:57.481Z,8.46
2023-03-05T21:28:00.329Z,8.42
2023-03-05T21:30:02.361Z,8.51
2023-03-05T21:32:08.041Z,8.44
2023-03-05T21:34:11.386Z,8.43
2023-03-05T21:36:13.853Z,8.45
2023-03-05T21:38:27.822Z,8.43
2023-03-05T21:40:30.896Z,8.43
2023-03-05T21:42:33.123Z,8.43
2023-03-05T21:44:35.136Z,8.39
2023-03-05T21:46:37.549Z,8.43
2023-03-05T21:48:39.757Z,8.44
2023-03-05T21:50:44.421Z,8.41
2023-03-05T21:52:46.517Z,8.31
2023-03-05T21:54:54.770Z,8.35
2023-03-05T21:56:59.273Z,8.36
2023-03-05T21:59:04.941Z,8.34
2023-03-05T22:01:14.987Z,8.29
2023-03-05T22:03:19.776Z,8.28
2023-03-05T22:05:28.114Z,8.29
2023-03-05T22:07:33.327Z,8.23
2023-03-05T22:09:38.508Z,8.28
2023-03-05T22:11:42.785Z,8.26
2023-03-05T22:13:45.060Z,8.17
2023-03-05T22:15:49.925Z,8.23
2023-03-05T22:17:51.984Z,8.20
2023-03-05T22:19:57.914Z,8.21
2023-03-05T22:22:00.128Z,8.21
2023-03-05T22:24:02.139Z,8.21
2023-03-05T22:26:07.118Z,8.18
2023-03-05T22:28:10.937Z,8.13
2023-03-05T22:30:13.888Z,8.07
2023-03-05T22:32:15.904Z,8.06
2023-03-05T22:34:19.997Z,8.11
2023-03-05T22:36:22.023Z,8.09
2023-03-05T22:38:25.479Z,8.04
2023-03-05T22:40:27.464Z,8.09
2023-03-05T22:42:29.839Z,8.03
2023-03-05T22:44:32.040Z,8.08
2023-03-05T22:46:34.112Z,8.04
2023-03-05T22:48:36.098Z,7.99
2023-03-05T22:50:40.052Z,7.91
2023-03-05T22:52:42.721Z,7.90
2023-03-05T22:54:44.703Z,7.86
2023-03-05T22:56:46.607Z,7.88
2023-03-05T22:58:48.930Z,7.87
2023-03-05T23:00:50.921Z,7.87
2023-03-05T23:02:53.649Z,7.77
2023-03-05T23:05:00.649Z,7.86
2023-03-05T23:07:02.587Z,7.88
2023-03-05T23:09:04.720Z,7.82
2023-03-05T23:11:15.221Z,7.73
2023-03-05T23:13:32.782Z,7.83
2023-03-05T23:15:37.888Z,7.81
2023-03-05T23:17:40.044Z,7.86
2023-03-05T23:19:42.183Z,7.78
2023-03-05T23:21:48.981Z,7.71
2023-03-05T23:23:53.232Z,7.78
2023-03-05T23:25:55.251Z,7.78
2023-03-05T23:27:58.414Z,7.80
2023-03-05T23:30:16.452Z,7.80
2023-03-05T23:32:18.704Z,7.80
2023-03-05T23:34:20.729Z,7.86
2023-03-05T23:36:25.540Z,7.77
2023-03-05T23:38:29.741Z,7.76
2023-03-05T23:40:34.816Z,7.73
2023-03-05T23:42:38.454Z,7.73
2023-03-05T23:44:40.596Z,7.71
2023-03-05T23:46:42.932Z,7.78
2023-03-05T23:48:45.175Z,7.74
2023-03-05T23:50:48.990Z,7.73
2023-03-05T23:52:52.315Z,7.69
2023-03-05T23:54:55.301Z,7.59
2023-03-05T23:56:57.268Z,7.62
2023-03-05T23:59:00.762Z,7.62
